CDT,Max TemperatureF,Mean TemperatureF,Min TemperatureF,Max Dew PointF,MeanDew PointF,Min DewpointF,Max Humidity, Mean Humidity, Min Humidity, Max Sea Level PressureIn, Mean Sea Level PressureIn, Min Sea Level PressureIn, Max VisibilityMiles, Mean VisibilityMiles, Min VisibilityMiles, Max Wind SpeedMPH, Mean Wind SpeedMPH, Max Gust SpeedMPH,PrecipitationIn, CloudCover, Events, WindDirDegrees
2011-10-1,86,67,48,32,29,26,39,26,13,30.21,30.15,30.09,10,10,10,12,4,15,0.00,0,,113
2011-10-2,89,74,59,53,40,31,46,33,19,30.18,30.11,30.04,10,10,10,16,9,21,0.00,0,,157
2011-10-3,88,74,60,48,40,34,46,32,17,30.17,30.10,30.06,10,10,10,16,9,26,0.00,0,,154
2011-10-4,85,70,55,48,38,28,59,37,15,30.19,30.10,30.03,10,10,10,21,10,33,0.00,0,,155
2011-10-5,83,73,62,60,54,39,66,52,37,30.06,29.98,29.88,10,10,10,24,15,31,T,3,Rain,162
2011-10-6,88,78,67,66,61,56,81,59,36,29.98,29.85,29.76,10,10,10,30,22,38,0.00,2,,160
2011-10-7,92,82,71,66,62,58,73,53,32,29.88,29.84,29.79,10,10,10,38,25,49,0.00,0,,160
2011-10-8,81,71,61,68,63,59,100,79,58,30.05,29.94,29.83,10,6,1,36,16,46,3.57,7,Rain-Thunderstorm,72
2011-10-9,70,65,59,63,60,58,100,85,70,30.06,30.00,29.91,10,10,4,30,7,36,0.24,7,Rain,64
2011-10-10,72,65,57,59,57,56,100,79,57,30.14,30.06,29.96,10,7,0,9,4,12,0.00,5,Fog,349
2011-10-11,78,67,55,63,60,55,100,77,54,29.97,29.87,29.74,10,10,10,16,9,22,0.00,1,,178
2011-10-12,81,72,62,65,63,60,93,72,51,29.93,29.79,29.69,10,10,9,16,8,21,0.00,1,,336
2011-10-13,80,67,54,62,51,34,100,60,19,30.07,30.01,29.92,10,5,0,10,4,13,0.00,0,Fog,273
2011-10-14,86,73,59,48,43,40,55,40,25,29.95,29.89,29.83,10,10,10,25,12,32,0.00,0,,174
2011-10-15,85,71,56,51,49,46,77,53,29,30.06,29.99,29.89,10,10,10,16,8,20,0.00,0,,174
2011-10-16,85,74,63,61,55,50,73,55,37,30.05,29.97,29.88,10,10,10,18,11,25,0.00,0,,187
2011-10-17,95,79,63,59,53,39,73,44,14,29.91,29.76,29.57,10,10,8,38,16,47,0.00,1,,220
2011-10-18,67,59,50,39,34,27,59,41,22,30.19,30.10,29.95,10,10,10,28,17,37,0.00,0,,349
2011-10-19,72,57,41,33,29,25,70,44,17,30.21,30.13,30.06,10,10,9,25,9,35,0.00,0,,328
2011-10-20,81,64,47,38,33,31,54,36,18,30.06,29.99,29.88,10,10,10,23,11,30,0.00,0,,162
2011-10-21,83,66,48,54,43,37,80,52,24,30.12,30.03,29.97,10,10,10,13,5,15,0.00,0,,111
2011-10-22,82,72,62,63,59,54,87,66,45,30.06,29.95,29.85,10,10,10,22,11,30,0.00,1,,176
2011-10-23,81,69,57,59,55,49,93,63,33,30.13,30.02,29.90,10,10,9,15,7,18,0.00,2,,343
2011-10-24,85,69,52,56,46,35,100,59,17,30.18,30.10,30.04,10,10,10,18,10,32,0.00,0,,159
2011-10-25,87,76,65,59,55,51,73,52,31,30.03,29.93,29.83,10,10,10,30,16,39,0.00,0,,185
2011-10-26,75,66,57,53,49,46,67,54,41,29.98,29.86,29.81,10,10,10,22,11,29,T,0,,2
2011-10-27,57,49,41,46,43,39,100,81,61,30.24,30.09,29.91,10,8,2,28,15,35,0.28,7,Rain,358
2011-10-28,58,49,39,41,38,34,96,68,40,30.35,30.28,30.22,10,10,10,16,8,24,0.00,4,,346
2011-10-29,64,49,34,39,34,30,96,62,28,30.32,30.19,30.02,10,10,10,17,9,24,0.00,0,,186
2011-10-30,72,59,46,44,39,33,80,56,31,30.21,30.08,29.98,10,10,10,16,6,21,0.00,0,,166
2011-10-31,76,58,40,48,44,40,96,64,31,30.21,30.13,30.03,10,10,10,15,6,21,0.00,0,,185